Tiempo atmosférico en la estación meteorológica de Torreblanca, Castelló/Castellón (16 m.)



Fecha
DESCASC
Temp. máxima en grados centígrados (hora)
DESCASC
Temp. mínima en grados centígrados (hora)
DESCASC
Temp. media en grados centígrados
DESCASC
Racha de viento máxima en m/sg (hora)
DESCASC
Velocidad máxima media en intervalos de 10 minutos(hora)
DESCASC
Precipitaciones diarias en mm
DESCASC
Precipitaciones de 00:00 a 06:00 en mm
DESCASC
Precipitaciones de 06:00 a 12:00 en mm
DESCASC
Precipitaciones de 12:00 a 18:00 en mm
DESCASC
Precipitaciones de 18:00 a 24:00 en mm
DESCASC
05-12-2019 13.6 (15:20) 11.3 (00:00) 12.5 10 (05:40) 6.11 (05:50) 15.6 8.2 1 0.6 5.8
04-12-2019 12.3 (13:50) 9.6 (07:10) 11 15 (01:50) 9.44 (05:40) 73.6 17.8 31 12.4 12.4
03-12-2019 13 (14:40) 10.3 (00:00) 11.7 12.22 (22:50) 6.94 (22:50) 2 0 0 0 2
02-12-2019 14.7 (13:50) 9.9 (00:00) 12.3 8.61 (07:20) 5.83 (05:50) 3.6 0 3.6 0 0
01-12-2019 17.1 (13:00) 10.9 (00:00) 14 10.28 (03:00) 7.5 (03:10) 0 0 0 0 0
30-11-2019 17.9 (11:40) 10.8 (00:00) 14.3 6.11 (07:40) 4.17 (07:40) 0 0 0 0 0
29-11-2019 23.3 (13:00) 14.3 (00:00) 18.8 5.83 (13:40) 4.17 (06:50) 0 0 0 0 0
28-11-2019 22.1 (13:50) 10.8 (00:00) 16.5 7.78 (14:50) 5 (21:40) 0.2 0 0 0 0.2
27-11-2019 22.7 (13:30) 13.9 (00:00) 18.3 6.67 (04:00) 5 (20:10) 0 0 0 0 0
26-11-2019 20.8 (11:50) 12.8 (00:00) 16.8 7.78 (03:10) 5.56 (03:20) 0 0 0 0 0
25-11-2019 22.4 (15:00) 10.7 (00:00) 16.5 7.78 (00:50) 4.17 (05:30) 0 0 0 0 0
24-11-2019 18.8 (15:40) 10.2 (00:00) 14.5 19.72 (12:00) 11.67 (11:40) 0 0 0 0 0
23-11-2019 16.5 (15:40) 9.7 (00:00) 13.1 18.33 (23:30) 9.17 (23:20) 0 0 0 0 0
22-11-2019 16.9 (13:30) 10.1 (00:00) 13.5 8.33 (13:50) 5 (13:40) 1.8 0 0 1.4 0.4
21-11-2019 16.8 (14:50) 7.7 (00:00) 12.2 7.5 (05:40) 6.11 (05:40) 0 0 0 0 0
20-11-2019 16 (13:20) 7.7 (00:00) 11.8 7.78 (05:30) 5.83 (05:30) 0 0 0 0 0
19-11-2019 15.8 (13:50) 5 (00:00) 10.4 9.44 (00:10) 6.11 (00:10) 0 0 0 0 0
18-11-2019 15.3 (15:50) 7.9 (00:00) 11.6 14.44 (11:20) 8.06 (11:30) 0.2 0 0.2 0 0
17-11-2019 18.2 (15:00) 7.4 (00:00) 12.8 7.78 (12:50) 5.28 (15:30) 0.4 0 0 0 0.4
16-11-2019 16.1 (14:20) 5.6 (00:00) 10.9 9.72 (14:10) 5.83 (11:00) 0 0 0 0 0
15-11-2019 15.2 (14:40) 6.6 (00:00) 10.9 8.06 (04:50) 4.17 (23:20) 0 0 0 0 0
14-11-2019 15.5 (10:20) 9.4 (00:00) 12.4 16.11 (10:40) 8.89 (10:40) 0 0 0 0 0
13-11-2019 18.7 (15:10) 10.4 (00:00) 14.6 12.78 (14:10) 8.61 (15:30) 2.2 0.8 1.4 0 0
12-11-2019 19.1 (14:50) 12.7 (00:00) 15.9 19.72 (08:50) 10.56 (02:30) 0 0 0 0 0
11-11-2019 18.4 (14:20) 11.3 (03:50) 14.8 14.72 (20:40) 8.61 (01:20) 0 0 0 0 0
10-11-2019 16.8 (14:00) 11.7 (00:00) 14.2 19.44 (07:00) 11.67 (07:00) 0 0 0 0 0
09-11-2019 17.3 (16:40) 13 (00:00) 15.1 20.83 (10:30) 11.11 (11:10) 0 0 0 0 0
08-11-2019 18.7 (15:40) 8.6 (00:00) 13.7 13.06 (19:50) 7.78 (17:30) 0 0 0 0 0

Gráficas

Temp. máximas Temp. mínimas Temp. medias Precipitaciones Rachas de viento máximas Velocidades máximas media en intervalos de 10 minutos

Datos horarios

Fecha y hora oficial Temperatura (ºC) Velocidad del viento (km/h) Dirección del viento Racha (km/h) Dirección de racha Precipitación (mm) Presión (hPa) Tendencia (hPa) Humedad (%)
2019-12-07 23:00:00 10.1 5 Noroeste 18 Noroeste 0 -- -- 91
2019-12-07 22:00:00 10.2 13 Noroeste 17 Noroeste 0 -- -- 93
2019-12-07 21:00:00 10.8 9 Noroeste 13 Noroeste 0 -- -- 94
2019-12-07 20:00:00 11.2 6 Noroeste 9 Noroeste 0 -- -- 94
2019-12-07 19:00:00 11 7 Noroeste 8 Noroeste 0 -- -- 94
2019-12-07 18:00:00 12 4 Noroeste 5 Noroeste 0 -- -- 90
2019-12-07 17:00:00 14.4 2 Sur 8 Sudeste 0 -- -- 84
2019-12-07 16:00:00 15 4 Sudeste 12 Este 0 -- -- 82
2019-12-07 15:00:00 15.4 8 Sudeste 16 Sudeste 0 -- -- 79
2019-12-07 14:00:00 16.1 8 Este 13 Este 0 -- -- 74
2019-12-07 13:00:00 15.8 4 Este 13 Sur 0 -- -- 71
2019-12-07 12:00:00 15.1 8 Sur 12 Este 0 -- -- 76
2019-12-07 11:00:00 13.9 3 Este 9 Sur 0 -- -- 79
2019-12-07 10:00:00 12.7 6 Noroeste 18 Noroeste 0 -- -- 72
2019-12-07 09:00:00 10.2 6 Norte 27 Noroeste 0 -- -- 82
2019-12-07 08:00:00 8.9 19 Noroeste 27 Noroeste 0 -- -- 87
2019-12-07 07:00:00 9 15 Noroeste 24 Noroeste 0 -- -- 86
2019-12-07 06:00:00 9.2 11 Noroeste 15 Norte 0 -- -- 89
2019-12-07 05:00:00 9.5 10 Noroeste 21 Noroeste 0 -- -- 89
2019-12-07 04:00:00 10 15 Norte 21 Noroeste 0 -- -- 86
2019-12-07 03:00:00 9.7 5 Norte 22 Noroeste 0 -- -- 90
2019-12-07 02:00:00 10.1 12 Noroeste 20 Noroeste 0 -- -- 90
2019-12-07 01:00:00 10.3 4 Noroeste 19 Noroeste 0 -- -- 94
2019-12-07 00:00:00 10.6 13 Noroeste 21 Noroeste 0 -- -- 94
2019-12-06 23:00:00 11 6 Noroeste 11 Noroeste 0 -- -- 93
2019-12-06 22:00:00 11.4 6 Noroeste 12 Noroeste 0 -- -- 92
2019-12-06 21:00:00 12.4 6 Noroeste 8 Noroeste 0 -- -- 92
2019-12-06 20:00:00 12.2 4 Noroeste 7 Noroeste 0 -- -- 94
2019-12-06 19:00:00 11.6 4 Noroeste 7 Noroeste 0 -- -- 92
2019-12-06 18:00:00 13.3 3 Noroeste 5 Noroeste 0 -- -- 88
2019-12-06 17:00:00 14.7 2 Sudeste 9 Sudeste 0 -- -- 83
2019-12-06 16:00:00 15.6 6 Sudeste 13 Sudeste 0 -- -- 77
2019-12-06 15:00:00 15.9 9 Sudeste 17 Sudeste 0 -- -- 75
2019-12-06 14:00:00 16.4 5 Sudeste 9 Sudeste 0 -- -- 73
2019-12-06 13:00:00 15.6 6 Norte 12 Nordeste 0 -- -- 77
2019-12-06 12:00:00 14.9 5 Norte 13 Norte 0 -- -- 83
2019-12-06 11:00:00 13.9 6 Norte 19 Noroeste 0 -- -- 88
2019-12-06 10:00:00 12.6 13 Norte 19 Norte 0 -- -- 90
2019-12-06 09:00:00 12.1 12 Norte 23 Norte 0 -- -- 92
2019-12-06 08:00:00 11.9 14 Norte 25 Norte 0.8 -- -- 93
2019-12-06 07:00:00 12 15 Norte 26 Norte 0.6 -- -- 93
2019-12-06 06:00:00 12 18 Norte 27 Norte 0.4 -- -- 92
2019-12-06 05:00:00 12.1 15 Norte 28 Norte 0.2 -- -- 92
2019-12-06 04:00:00 12.1 17 Norte 28 Norte 0 -- -- 92
2019-12-06 03:00:00 12 16 Norte 27 Norte 0 -- -- 93
2019-12-06 02:00:00 11.9 15 Norte 27 Norte 0.6 -- -- 94
2019-12-06 01:00:00 11.9 14 Norte 26 Norte 0 -- -- 93
2019-12-06 00:00:00 11.9 18 Norte 26 Norte 0.2 -- -- 93
2019-12-05 23:00:00 11.5 17 Norte 27 Norte 2 -- -- 95
2019-12-05 22:00:00 11.4 12 Norte 33 Norte 1.6 -- -- 94
2019-12-05 21:00:00 11.4 15 Norte 24 Norte 0.2 -- -- 93
2019-12-05 20:00:00 11.6 13 Norte 18 Norte 1.8 -- -- 92
2019-12-05 19:00:00 12.2 10 Norte 15 Norte 0 -- -- 89
2019-12-05 18:00:00 12.2 6 Norte 14 Norte 0 -- -- 92
2019-12-05 17:00:00 12.4 5 Nordeste 22 Norte 0 -- -- 92
2019-12-05 16:00:00 13.2 10 Nordeste 19 Nordeste 0 -- -- 85
2019-12-05 15:00:00 13.2 10 Norte 20 Norte 0 -- -- 86
2019-12-05 14:00:00 12.7 10 Norte 26 Nordeste 0 -- -- 91
2019-12-05 13:00:00 12.7 12 Nordeste 22 Norte 0.6 -- -- 90
2019-12-05 12:00:00 13.2 9 Norte 24 Norte 0 -- -- 85
2019-12-05 11:00:00 12.6 15 Norte 27 Norte 0 -- -- 89
2019-12-05 10:00:00 12 13 Norte 28 Noroeste 0 -- -- 93
2019-12-05 09:00:00 11.8 12 Norte 26 Norte 0.4 -- -- 92
2019-12-05 08:00:00 11.7 12 Norte 31 Norte 0.6 -- -- 91
2019-12-05 07:00:00 11.9 17 Norte 34 Norte 0 -- -- 87
2019-12-05 06:00:00 11.7 19 Norte 36 Norte 0.2 -- -- 88
2019-12-05 05:00:00 12 18 Norte 32 Norte 0 -- -- 84
2019-12-05 04:00:00 11.9 13 Norte 30 Nordeste 0 -- -- 87
2019-12-05 03:00:00 11.7 18 Norte 35 Norte 0.2 -- -- 89
2019-12-05 02:00:00 11.3 19 Norte 31 Norte 1.4 -- -- 93
2019-12-05 01:00:00 11.6 21 Nordeste 32 Nordeste 6.4 -- -- 94
2019-12-05 00:00:00 11.3 17 Norte 32 Norte 3 -- -- 94
2019-12-04 23:00:00 11.3 19 Norte 30 Norte 0.6 -- -- 93
2019-12-04 22:00:00 11.1 22 Norte 35 Norte 2 -- -- 93
2019-12-04 21:00:00 10.8 24 Norte 37 Norte 3.6 -- -- 95
2019-12-04 20:00:00 11.1 19 Norte 37 Norte 0.8 -- -- 93
2019-12-04 19:00:00 11.1 21 Norte 38 Nordeste 2.4 -- -- 94
2019-12-04 18:00:00 10.3 22 Norte 37 Norte 2.2 -- -- 92
2019-12-04 17:00:00 11.7 17 Norte 29 Norte 2.6 -- -- 93
2019-12-04 16:00:00 11.3 17 Norte 31 Norte 4 -- -- 92
2019-12-04 15:00:00 11.1 20 Norte 40 Norte 3.4 -- -- 92
2019-12-04 14:00:00 12.2 17 Norte 36 Norte 0 -- -- 89
2019-12-04 13:00:00 11.1 18 Norte 32 Norte 0.2 -- -- 90
2019-12-04 12:00:00 10.4 19 Norte 35 Norte 4.6 -- -- 93
2019-12-04 11:00:00 9.7 26 Norte 40 Norte 5.2 -- -- 95
2019-12-04 10:00:00 9.7 21 Norte 45 Norte 4.6 -- -- 94
2019-12-04 09:00:00 9.8 16 Norte 31 Norte 4.8 -- -- 92
2019-12-04 08:00:00 10 15 Norte 37 Nordeste 6.2 -- -- 95
2019-12-04 07:00:00 9.7 24 Norte 47 Norte 5.6 -- -- 95
2019-12-04 06:00:00 10.3 29 Norte 53 Norte 5.4 -- -- 95
2019-12-04 05:00:00 10.4 29 Norte 49 Norte 3.6 -- -- 91
2019-12-04 04:00:00 10.4 32 Norte 50 Norte 3.6 -- -- 92
2019-12-04 03:00:00 10.2 22 Norte 48 Norte 3.2 -- -- 90
2019-12-04 02:00:00 10 30 Norte 54 Norte 1.4 -- -- 92
2019-12-04 01:00:00 10.7 30 Norte 46 Norte 0.6 -- -- 84
2019-12-04 00:00:00 10.4 23 Norte 41 Norte 1.6 -- -- 87
2019-12-03 23:00:00 10.5 24 Norte 44 Norte 0.2 -- -- 85
2019-12-03 22:00:00 11.6 20 Norte 35 Norte 0 -- -- 74
2019-12-03 21:00:00 11.1 18 Norte 31 Norte 0 -- -- 77
2019-12-03 20:00:00 10.3 21 Norte 31 Noroeste 0.2 -- -- 77
2019-12-03 19:00:00 11.2 16 Norte 29 Norte 0 -- -- 70
2019-12-03 18:00:00 11.5 15 Norte 30 Norte 0 -- -- 58
2019-12-03 17:00:00 11.3 14 Nordeste 27 Nordeste 0 -- -- 60
2019-12-03 16:00:00 12 13 Norte 31 Nordeste 0 -- -- 56
2019-12-03 15:00:00 12.9 18 Nordeste 31 Nordeste 0 -- -- 52
2019-12-03 14:00:00 12.5 14 Nordeste 23 Nordeste 0 -- -- 53
2019-12-03 13:00:00 11.9 8 Nordeste 15 Nordeste 0 -- -- 58
2019-12-03 12:00:00 11.8 6 Nordeste 16 Nordeste 0 -- -- 57
2019-12-03 11:00:00 11.3 10 Norte 27 Norte 0 -- -- 54
2019-12-03 10:00:00 11 17 Norte 29 Norte 0 -- -- 54
2019-12-03 09:00:00 10.7 15 Norte 30 Norte 0 -- -- 54
2019-12-03 08:00:00 10.6 22 Norte 33 Norte 0 -- -- 55
2019-12-03 07:00:00 10.5 18 Norte 33 Norte 0 -- -- 56
2019-12-03 06:00:00 10.5 19 Norte 33 Norte 0 -- -- 56
2019-12-03 05:00:00 10.8 20 Norte 35 Norte 0 -- -- 58
2019-12-03 04:00:00 10.8 17 Norte 27 Norte 0 -- -- 60
2019-12-03 03:00:00 11.1 16 Norte 30 Norte 0 -- -- 60
2019-12-03 02:00:00 11.9 14 Norte 23 Norte 0 -- -- 60
2019-12-03 01:00:00 11.8 8 Norte 14 Norte 0 -- -- 67
2019-12-03 00:00:00 12.3 9 Norte 12 Norte 0 -- -- 72
2019-12-02 23:00:00 12.5 4 Norte 8 Nordeste 0 -- -- 72
2019-12-02 22:00:00 12.6 4 Norte 11 Noroeste 0 -- -- 71
2019-12-02 21:00:00 12.6 10 Norte 13 Noroeste 0 -- -- 74
2019-12-02 20:00:00 12.9 5 Norte 9 Noroeste 0 -- -- 72
2019-12-02 19:00:00 13.1 6 Norte 9 Norte 0 -- -- 73
2019-12-02 18:00:00 13.2 3 Norte 16 Nordeste 0 -- -- 73
2019-12-02 17:00:00 13.6 7 Nordeste 14 Este 0 -- -- 71
2019-12-02 16:00:00 14.1 10 Este 15 Nordeste 0 -- -- 66
2019-12-02 15:00:00 14.3 10 Nordeste 24 Nordeste 0 -- -- 66
2019-12-02 14:00:00 14.7 12 Norte 19 Norte 0 -- -- 66
2019-12-02 13:00:00 14.1 10 Nordeste 17 Norte 0 -- -- 66
2019-12-02 12:00:00 13.6 13 Norte 29 Norte 0 -- -- 71
2019-12-02 11:00:00 12.7 15 Norte 26 Norte 0 -- -- 75
2019-12-02 10:00:00 11.4 15 Norte 27 Norte 0 -- -- 81
2019-12-02 09:00:00 10.4 17 Norte 27 Norte 0 -- -- 89
2019-12-02 08:00:00 9.9 17 Norte 31 Norte 3.4 -- -- 89
2019-12-02 07:00:00 11 15 Norte 27 Norte 0.2 -- -- 75
2019-12-02 06:00:00 11.7 17 Norte 29 Norte 0 -- -- 63
2019-12-02 05:00:00 10.9 17 Norte 27 Norte 0 -- -- 65
2019-12-02 04:00:00 10.9 17 Norte 28 Norte 0 -- -- 65
2019-12-02 03:00:00 10.7 15 Norte 27 Norte 0 -- -- 66
2019-12-02 02:00:00 10.6 16 Norte 21 Norte 0 -- -- 67
2019-12-02 01:00:00 10.4 18 Norte 25 Norte 0 -- -- 70
2019-12-02 00:00:00 11.3 15 Noroeste 23 Norte 0 -- -- 67
2019-12-01 23:00:00 11.9 5 Norte 18 Noroeste 0 -- -- 65
2019-12-01 22:00:00 11.8 14 Norte 20 Noroeste 0 -- -- 72
2019-12-01 21:00:00 12.2 14 Noroeste 18 Noroeste 0 -- -- 72
2019-12-01 20:00:00 13.1 10 Norte 14 Noroeste 0 -- -- 70
2019-12-01 19:00:00 13.2 4 Norte 9 Nordeste 0 -- -- 69
2019-12-01 18:00:00 13.6 4 Nordeste 9 Este 0 -- -- 70
2019-12-01 17:00:00 15 7 Nordeste 20 Este 0 -- -- 65
2019-12-01 16:00:00 15.8 13 Este 26 Este 0 -- -- 63
2019-12-01 15:00:00 16.7 15 Este 24 Sudeste 0 -- -- 63
2019-12-01 14:00:00 17 13 Este 21 Este 0 -- -- 62
2019-12-01 13:00:00 17.1 10 Este 18 Este 0 -- -- 62
2019-12-01 12:00:00 16.9 6 Sudeste 13 Sur 0 -- -- 63
2019-12-01 11:00:00 15.5 4 Sudoeste 11 Oeste 0 -- -- 66
2019-12-01 10:00:00 14.5 8 Noroeste 11 Noroeste 0 -- -- 64
2019-12-01 09:00:00 11.6 7 Noroeste 10 Noroeste 0 -- -- 75
2019-12-01 08:00:00 11.8 2 Norte 7 Noroeste 0 -- -- 71
2019-12-01 07:00:00 11.5 3 Noroeste 8 Oeste 0 -- -- 72
2019-12-01 06:00:00 11.3 5 Noroeste 10 Noroeste 0 -- -- 77
2019-12-01 05:00:00 11 4 Oeste 8 Noroeste 0 -- -- 76
2019-12-01 04:00:00 11.9 5 Noroeste 37 Norte 0 -- -- 71
2019-12-01 03:00:00 13.7 26 Norte 37 Norte 0 -- -- 61
2019-12-01 02:00:00 12.2 8 Norte 28 Nordeste 0 -- -- 87
2019-12-01 01:00:00 11.8 4 Norte 16 Noroeste 0 -- -- 92
2019-12-01 00:00:00 11.9 5 Norte 7 Noroeste 0 -- -- 94
2019-11-30 23:00:00 11.1 2 Norte 10 Noroeste 0 -- -- 93
2019-11-30 22:00:00 12.6 9 Noroeste 16 Noroeste 0 -- -- 92
2019-11-30 21:00:00 12.6 10 Norte 17 Norte 0 -- -- 92
2019-11-30 20:00:00 12.8 6 Noroeste 9 Noroeste 0 -- -- 91
2019-11-30 19:00:00 13.1 6 Noroeste 8 Noroeste 0 -- -- 90
2019-11-30 18:00:00 14.6 2 Norte 6 Sur 0 -- -- 84
2019-11-30 17:00:00 16.5 4 Sur 10 Este 0 -- -- 81
2019-11-30 16:00:00 16.9 2 Sudeste 10 Sudeste 0 -- -- 79
2019-11-30 15:00:00 16.3 7 Sudeste 13 Sudeste 0 -- -- 81
2019-11-30 14:00:00 16.3 8 Sudeste 13 Sudeste 0 -- -- 83
2019-11-30 13:00:00 17.3 9 Sudeste 14 Sudeste 0 -- -- 77
2019-11-30 12:00:00 17.7 7 Sudeste 12 Sur 0 -- -- 73
2019-11-30 11:00:00 17.7 7 Sur 10 Sudeste 0 -- -- 67
2019-11-30 10:00:00 16.1 2 Sur 8 Noroeste 0 -- -- 71
2019-11-30 09:00:00 13.7 4 Oeste 19 Norte 0 -- -- 76
2019-11-30 08:00:00 13.2 12 Norte 22 Noroeste 0 -- -- 77
2019-11-30 07:00:00 14.1 12 Noroeste 14 Noroeste 0 -- -- 74
2019-11-30 06:00:00 14.2 13 Noroeste 15 Norte 0 -- -- 73
2019-11-30 05:00:00 15.2 2 Noroeste 6 Norte 0 -- -- 71
2019-11-30 04:00:00 15.8 4 Norte 12 Noroeste 0 -- -- 68
2019-11-30 03:00:00 15.8 7 Noroeste 14 Noroeste 0 -- -- 66
2019-11-30 02:00:00 15.9 12 Noroeste 15 Noroeste 0 -- -- 66
2019-11-30 01:00:00 16.1 5 Norte 12 Noroeste 0 -- -- 66
2019-11-30 00:00:00 15.8 8 Noroeste 13 Noroeste 0 -- -- 67
2019-11-29 23:00:00 15.2 5 Noroeste 12 Noroeste 0 -- -- 69
2019-11-29 22:00:00 15.5 3 Noroeste 8 Noroeste 0 -- -- 68
2019-11-29 21:00:00 15.4 2 Nordeste 10 Noroeste 0 -- -- 70
2019-11-29 20:00:00 16.5 4 Norte 12 Noroeste 0 -- -- 65
2019-11-29 19:00:00 16.9 4 Norte 8 Noroeste 0 -- -- 68
2019-11-29 18:00:00 17.4 3 Norte 5 Nordeste 0 -- -- 67
2019-11-29 17:00:00 18.5 3 Nordeste 14 Sudeste 0 -- -- 67
2019-11-29 16:00:00 20 9 Sur 13 Sur 0 -- -- 56
2019-11-29 15:00:00 20.8 7 Sur 14 Sur 0 -- -- 54
2019-11-29 14:00:00 20.9 10 Sur 21 Sur 0 -- -- 54
2019-11-29 13:00:00 23.3 8 Nordeste 21 Nordeste 0 -- -- 46
2019-11-29 12:00:00 21.3 6 Nordeste 16 Norte 0 -- -- 48
2019-11-29 11:00:00 19.6 4 Nordeste 15 Noroeste 0 -- -- 52
2019-11-29 10:00:00 17.7 6 Norte 14 Norte 0 -- -- 54
2019-11-29 09:00:00 15.5 8 Noroeste 20 Noroeste 0 -- -- 59
2019-11-29 08:00:00 14.3 3 Sudeste 13 Noroeste 0 -- -- 62
2019-11-29 07:00:00 15 8 Noroeste 21 Noroeste 0 -- -- 58
2019-11-29 06:00:00 14.8 6 Noroeste 14 Norte 0 -- -- 60
2019-11-29 05:00:00 14.5 10 Noroeste 16 Noroeste 0 -- -- 61
2019-11-29 04:00:00 14.6 8 Noroeste 16 Norte 0 -- -- 62
2019-11-29 03:00:00 15 9 Noroeste 15 Noroeste 0 -- -- 62
2019-11-29 02:00:00 14.7 5 Noroeste 8 Noroeste 0 -- -- 65
2019-11-29 01:00:00 15 2 Este 13 Noroeste 0 -- -- 67
2019-11-29 00:00:00 14.8 9 Noroeste 13 Noroeste 0.2 -- -- 72
2019-11-28 23:00:00 17.1 5 Norte 22 Noroeste 0 -- -- 55
2019-11-28 22:00:00 17.3 16 Noroeste 25 Noroeste 0 -- -- 50
2019-11-28 21:00:00 16.9 4 Norte 14 Noroeste 0 -- -- 53
2019-11-28 20:00:00 16.5 3 Sur 13 Noroeste 0 -- -- 60
2019-11-28 19:00:00 16.8 2 Sur 11 Noroeste 0 -- -- 60
2019-11-28 18:00:00 17.1 0 Calma 9 Noroeste 0 -- -- 67
2019-11-28 17:00:00 17.9 5 Nordeste 9 Este 0 -- -- 67
2019-11-28 16:00:00 19.3 3 Sur 12 Sudeste 0 -- -- 58
2019-11-28 15:00:00 20 9 Sur 28 Sur 0 -- -- 60
2019-11-28 14:00:00 21.5 10 Sudeste 16 Sudeste 0 -- -- 44
2019-11-28 13:00:00 21 7 Este 17 Sudeste 0 -- -- 45
2019-11-28 12:00:00 19.7 5 Sudoeste 10 Sur 0 -- -- 46
2019-11-28 11:00:00 17.3 5 Este 8 Nordeste 0 -- -- 49
2019-11-28 10:00:00 16 4 Sudeste 10 Este 0 -- -- 54
2019-11-28 09:00:00 13.6 6 Norte 13 Noroeste 0 -- -- 56
2019-11-28 08:00:00 11.5 5 Noroeste 11 Norte 0 -- -- 60
2019-11-28 07:00:00 12.2 7 Sudoeste 13 Noroeste 0 -- -- 58
2019-11-28 06:00:00 12.2 4 Norte 14 Noroeste 0 -- -- 57
2019-11-28 05:00:00 11.3 2 Noroeste 15 Noroeste 0 -- -- 60
2019-11-28 04:00:00 11.7 5 Noroeste 11 Noroeste 0 -- -- 59
2019-11-28 03:00:00 13.9 5 Noroeste 19 Oeste 0 -- -- 52
2019-11-28 02:00:00 14.8 15 Oeste 26 Oeste 0 -- -- 50
2019-11-28 01:00:00 14.9 11 Noroeste 20 Oeste 0 -- -- 50
2019-11-28 00:00:00 15 4 Noroeste 14 Oeste 0 -- -- 50
2019-11-27 23:00:00 15.8 10 Oeste 16 Oeste 0 -- -- 53
2019-11-27 22:00:00 15.5 11 Noroeste 23 Noroeste 0 -- -- 56
2019-11-27 21:00:00 14.9 15 Noroeste 23 Noroeste 0 -- -- 61
2019-11-27 20:00:00 14.9 16 Noroeste 24 Noroeste 0 -- -- 62
2019-11-27 19:00:00 16 15 Norte 21 Noroeste 0 -- -- 61
2019-11-27 18:00:00 16.7 6 Nordeste 11 Este 0 -- -- 65
2019-11-27 17:00:00 19.1 4 Sur 19 Este 0 -- -- 53
2019-11-27 16:00:00 20.7 11 Este 20 Este 0 -- -- 46
2019-11-27 15:00:00 20.8 12 Este 22 Este 0 -- -- 50
2019-11-27 14:00:00 22.5 12 Sur 21 Sur 0 -- -- 44
2019-11-27 06:00:00 -- -- -- -- -- -- -- -- --
2019-11-27 05:00:00 15.3 4 Noroeste 19 Oeste 0 -- -- 70
2019-11-27 04:00:00 17.2 16 Sudoeste 24 Sudoeste 0 -- -- 66
2019-11-27 03:00:00 16.7 13 Sudoeste 23 Sudoeste 0 -- -- 68
2019-11-27 02:00:00 16.8 12 Sudoeste 20 Sur 0 -- -- 66
2019-11-27 01:00:00 17.8 10 Oeste 16 Oeste 0 -- -- 60
2019-11-27 00:00:00 16.4 14 Oeste 17 Noroeste 0 -- -- 64
2019-11-26 23:00:00 14.1 7 Noroeste 10 Noroeste 0 -- -- 70
2019-11-26 22:00:00 14.1 2 Norte 10 Noroeste 0 -- -- 70
2019-11-26 21:00:00 14.1 0 Calma 17 Noroeste 0 -- -- 68
2019-11-26 20:00:00 14.6 13 Noroeste 19 Noroeste 0 -- -- 66
2019-11-26 19:00:00 14.8 9 Noroeste 14 Norte 0 -- -- 75
2019-11-26 18:00:00 15.5 0 Calma 6 Noroeste 0 -- -- 72
2019-11-26 17:00:00 18.7 3 Sudeste 8 Sudeste 0 -- -- 63
2019-11-26 16:00:00 19.1 4 Sudeste 13 Sudeste 0 -- -- 61
2019-11-26 15:00:00 19.1 7 Sudeste 15 Sur 0 -- -- 61
2019-11-26 14:00:00 19.5 8 Sur 14 Sur 0 -- -- 53
2019-11-26 13:00:00 19.6 6 Sur 15 Sudeste 0 -- -- 54
2019-11-26 12:00:00 20.5 8 Sudeste 14 Sudeste 0 -- -- 50
2019-11-26 11:00:00 18.9 5 Este 17 Noroeste 0 -- -- 50
2019-11-26 10:00:00 16 9 Norte 20 Noroeste 0 -- -- 56
2019-11-26 09:00:00 13.5 11 Norte 22 Noroeste 0 -- -- 61
2019-11-26 08:00:00 13 15 Noroeste 22 Norte 0 -- -- 62
2019-11-26 07:00:00 13.4 16 Noroeste 21 Noroeste 0 -- -- 61
2019-11-26 06:00:00 13.4 5 Noroeste 15 Noroeste 0 -- -- 61
2019-11-26 05:00:00 13.8 8 Norte 22 Norte 0 -- -- 59
2019-11-26 04:00:00 14.1 8 Norte 28 Norte 0 -- -- 58
2019-11-26 03:00:00 14.4 18 Noroeste 26 Noroeste 0 -- -- 57
2019-11-26 02:00:00 14.2 15 Noroeste 22 Noroeste 0 -- -- 58
2019-11-26 01:00:00 14.5 7 Noroeste 17 Noroeste 0 -- -- 57
2019-11-26 00:00:00 14.3 12 Noroeste 17 Noroeste 0 -- -- 60
2019-11-25 23:00:00 14.2 5 Oeste 16 Noroeste 0 -- -- 64
2019-11-25 22:00:00 14.4 10 Noroeste 16 Noroeste 0 -- -- 67
2019-11-25 21:00:00 15.4 7 Noroeste 13 Noroeste 0 -- -- 65
2019-11-25 20:00:00 15.4 2 Sudeste 15 Noroeste 0 -- -- 68
2019-11-25 19:00:00 14.5 6 Noroeste 10 Noroeste 0 -- -- 75
2019-11-25 18:00:00 15.6 7 Noroeste 10 Norte 0 -- -- 76
2019-11-25 17:00:00 17.3 5 Nordeste 17 Nordeste 0 -- -- 73
2019-11-25 16:00:00 19 8 Este 20 Este 0 -- -- 65
2019-11-25 15:00:00 22.4 4 Sudoeste 14 Este 0 -- -- 47
2019-11-25 14:00:00 21 4 Sudoeste 12 Sudeste 0 -- -- 49
2019-11-25 13:00:00 20.1 7 Sur 17 Sudoeste 0 -- -- 51
2019-11-25 12:00:00 19.2 9 Sudeste 20 Sur 0 -- -- 45
2019-11-25 11:00:00 19 6 Sur 13 Sur 0 -- -- 46
2019-11-25 10:00:00 15.9 5 Noroeste 12 Norte 0 -- -- 49
2019-11-25 09:00:00 13.1 10 Norte 18 Noroeste 0 -- -- 53
2019-11-25 08:00:00 12.6 12 Noroeste 23 Norte 0 -- -- 52
2019-11-25 07:00:00 11.9 11 Noroeste 20 Noroeste 0 -- -- 54
2019-11-25 06:00:00 10.9 10 Norte 23 Noroeste 0 -- -- 56
2019-11-25 05:00:00 12.1 8 Noroeste 13 Noroeste 0 -- -- 51
2019-11-25 04:00:00 11.6 2 Sudoeste 21 Noroeste 0 -- -- 51
2019-11-25 03:00:00 11.4 12 Noroeste 19 Noroeste 0 -- -- 52
2019-11-25 02:00:00 10.9 12 Noroeste 24 Norte 0 -- -- 53
2019-11-25 01:00:00 10.9 14 Noroeste 28 Norte 0 -- -- 54
2019-11-25 00:00:00 10.7 14 Noroeste 21 Noroeste 0 -- -- 55
2019-11-24 23:00:00 10.5 12 Noroeste 15 Noroeste 0 -- -- 56
2019-11-24 22:00:00 11.1 4 Nordeste 18 Noroeste 0 -- -- 54
2019-11-24 21:00:00 12.2 3 Noroeste 15 Noroeste 0 -- -- 50
2019-11-24 20:00:00 12.6 8 Noroeste 13 Oeste 0 -- -- 51
2019-11-24 19:00:00 13.3 2 Noroeste 8 Nordeste 0 -- -- 49
2019-11-24 18:00:00 15 7 Noroeste 9 Noroeste 0 -- -- 45
2019-11-24 17:00:00 17.4 6 Sudeste 30 Norte 0 -- -- 39
2019-11-24 16:00:00 18.4 12 Nordeste 39 Norte 0 -- -- 35
2019-11-24 15:00:00 18.2 11 Oeste 44 Noroeste 0 -- -- 35
2019-11-24 14:00:00 18.4 14 Noroeste 27 Norte 0 -- -- 35
2019-11-24 13:00:00 18.3 8 Sudoeste 61 Noroeste 0 -- -- 36
2019-11-24 12:00:00 17.8 40 Norte 71 Noroeste 0 -- -- 35
2019-11-24 11:00:00 16.7 31 Noroeste 69 Noroeste 0 -- -- 38
2019-11-24 10:00:00 15.7 32 Norte 62 Noroeste 0 -- -- 41
2019-11-24 09:00:00 15.1 26 Norte 49 Norte 0 -- -- 40
2019-11-24 08:00:00 14.7 20 Norte 51 Norte 0 -- -- 41
2019-11-24 07:00:00 15 20 Noroeste 40 Noroeste 0 -- -- 39
2019-11-24 06:00:00 12 6 Noroeste 21 Noroeste 0 -- -- 45
2019-11-24 05:00:00 12.9 9 Sudoeste 24 Norte 0 -- -- 45
2019-11-24 04:00:00 15.1 11 Noroeste 61 Noroeste 0 -- -- 38
2019-11-24 03:00:00 15.4 28 Noroeste 49 Noroeste 0 -- -- 37
2019-11-24 02:00:00 15.3 13 Oeste 57 Noroeste 0 -- -- 39
2019-11-24 01:00:00 15.2 23 Noroeste 70 Noroeste 0 -- -- 41
2019-11-24 00:00:00 15.2 27 Noroeste 66 Noroeste 0 -- -- 41
2019-11-23 23:00:00 15.2 31 Noroeste 60 Noroeste 0 -- -- 42
2019-11-23 22:00:00 15.4 23 Noroeste 55 Oeste 0 -- -- 40
2019-11-23 21:00:00 15.7 24 Noroeste 51 Noroeste 0 -- -- 38
2019-11-23 20:00:00 15.6 18 Noroeste 39 Norte 0 -- -- 37
2019-11-23 19:00:00 15.9 10 Noroeste 46 Noroeste 0 -- -- 37
2019-11-23 18:00:00 16 13 Noroeste 43 Noroeste 0 -- -- 38
2019-11-23 17:00:00 16.3 13 Noroeste 46 Noroeste 0 -- -- 38
2019-11-23 16:00:00 16.5 15 Noroeste 47 Oeste 0 -- -- 36
2019-11-23 15:00:00 15.9 20 Noroeste 47 Noroeste 0 -- -- 38
2019-11-23 14:00:00 15.8 18 Noroeste 45 Noroeste 0 -- -- 44
2019-11-23 13:00:00 15.4 13 Norte 50 Norte 0 -- -- 48
2019-11-23 12:00:00 14.7 6 Nordeste 17 Norte 0 -- -- 54
2019-11-23 11:00:00 14.6 11 Noroeste 41 Oeste 0 -- -- 53
2019-11-23 10:00:00 15.5 17 Oeste 37 Noroeste 0 -- -- 48
2019-11-23 09:00:00 11.2 6 Noroeste 13 Norte 0 -- -- 72
2019-11-23 08:00:00 11.5 10 Noroeste 23 Norte 0 -- -- 71
2019-11-23 07:00:00 10.3 18 Noroeste 25 Noroeste 0 -- -- 79
2019-11-23 06:00:00 10.1 11 Noroeste 16 Noroeste 0 -- -- 81
2019-11-23 05:00:00 10.6 6 Noroeste 15 Noroeste 0 -- -- 81
2019-11-23 04:00:00 9.9 4 Norte 16 Oeste 0 -- -- 87
2019-11-23 03:00:00 10.4 9 Noroeste 14 Noroeste 0 -- -- 90
2019-11-23 02:00:00 11 7 Noroeste 13 Noroeste 0 -- -- 92
2019-11-23 01:00:00 11.5 6 Norte 14 Noroeste 0 -- -- 93
2019-11-23 00:00:00 12.2 6 Oeste 11 Sudoeste 0 -- -- 91
2019-11-22 23:00:00 13.2 9 Sudoeste 20 Sudoeste 0 -- -- 92
2019-11-22 22:00:00 13.5 7 Sur 13 Sudoeste 0 -- -- 94
2019-11-22 21:00:00 13.6 0 Calma 5 Oeste 0.2 -- -- 93
2019-11-22 20:00:00 13.9 0 Calma 6 Noroeste 0 -- -- 92
2019-11-22 19:00:00 13.9 4 Noroeste 6 Noroeste 0.2 -- -- 92
2019-11-22 18:00:00 14 3 Nordeste 5 Nordeste 1 -- -- 90
2019-11-22 17:00:00 15.2 0 Calma 10 Sudoeste 0.4 -- -- 82
2019-11-22 16:00:00 15.5 7 Sudoeste 22 Sur 0 -- -- 75
2019-11-22 15:00:00 16.1 13 Sur 25 Sur 0 -- -- 69
2019-11-22 14:00:00 16.9 17 Sur 30 Sur 0 -- -- 60
2019-11-22 13:00:00 16.4 15 Sur 25 Sur 0 -- -- 57
2019-11-22 12:00:00 16.2 10 Sudeste 19 Sudeste 0 -- -- 62
2019-11-22 11:00:00 15.3 7 Sur 13 Sudeste 0 -- -- 62
2019-11-22 10:00:00 12 9 Noroeste 19 Norte 0 -- -- 66
2019-11-22 09:00:00 11.7 9 Noroeste 16 Noroeste 0 -- -- 66
2019-11-22 08:00:00 10.4 9 Norte 23 Norte 0 -- -- 68
2019-11-22 07:00:00 10.1 18 Noroeste 26 Noroeste 0 -- -- 70
2019-11-22 06:00:00 10.2 14 Noroeste 22 Noroeste 0 -- -- 71
2019-11-22 05:00:00 10.7 13 Noroeste 23 Norte 0 -- -- 71
2019-11-22 04:00:00 11.2 15 Noroeste 21 Norte 0 -- -- 70
2019-11-22 03:00:00 12 14 Noroeste 19 Noroeste 0 -- -- 68
2019-11-22 02:00:00 12.5 12 Noroeste 19 Norte 0 -- -- 66
2019-11-22 01:00:00 12.4 15 Norte 20 Norte 0 -- -- 67
2019-11-22 00:00:00 12.8 9 Noroeste 12 Norte 0 -- -- 65
2019-11-21 23:00:00 13.3 7 Noroeste 13 Noroeste 0 -- -- 64
2019-11-21 22:00:00 13.3 8 Noroeste 14 Noroeste 0 -- -- 64
2019-11-21 21:00:00 13.5 8 Noroeste 20 Oeste 0 -- -- 64
2019-11-21 20:00:00 13.7 4 Noroeste 9 Noroeste 0 -- -- 66
2019-11-21 19:00:00 13.8 6 Noroeste 11 Noroeste 0 -- -- 68
2019-11-21 18:00:00 14.7 2 Oeste 6 Nordeste 0 -- -- 65
2019-11-21 17:00:00 16 3 Sudeste 19 Sur 0 -- -- 62
2019-11-21 16:00:00 16.4 7 Sur 15 Sur 0 -- -- 57
2019-11-21 15:00:00 16.8 10 Sur 16 Sudeste 0 -- -- 54
2019-11-21 14:00:00 16.5 7 Sudeste 16 Sur 0 -- -- 49
2019-11-21 13:00:00 15.7 9 Sur 17 Sur 0 -- -- 52
2019-11-21 12:00:00 15.5 9 Sur 18 Sur 0 -- -- 56
2019-11-21 11:00:00 14.9 10 Sur 20 Sur 0 -- -- 53
2019-11-21 10:00:00 12.9 2 Sur 14 Noroeste 0 -- -- 56
2019-11-21 09:00:00 9.2 9 Noroeste 18 Noroeste 0 -- -- 68
2019-11-21 08:00:00 7.8 8 Sudoeste 23 Noroeste 0 -- -- 73
2019-11-21 07:00:00 8.1 14 Noroeste 26 Norte 0 -- -- 73
2019-11-21 06:00:00 8.1 19 Norte 27 Norte 0 -- -- 74
2019-11-21 05:00:00 8.8 16 Noroeste 24 Norte 0 -- -- 74
2019-11-21 04:00:00 8.3 6 Noroeste 22 Norte 0 -- -- 80
2019-11-21 03:00:00 8.8 7 Noroeste 10 Noroeste 0 -- -- 78
2019-11-21 02:00:00 9.5 3 Norte 7 Noroeste 0 -- -- 78
2019-11-21 01:00:00 10.8 4 Noroeste 12 Noroeste 0 -- -- 73
2019-11-21 00:00:00 11 8 Noroeste 16 Noroeste 0 -- -- 74
2019-11-20 23:00:00 10.9 10 Noroeste 22 Noroeste 0 -- -- 76
2019-11-20 22:00:00 11 13 Noroeste 20 Norte 0 -- -- 76
2019-11-20 21:00:00 10.9 12 Noroeste 17 Noroeste 0 -- -- 72
2019-11-20 20:00:00 10.8 8 Noroeste 12 Noroeste 0 -- -- 75
2019-11-20 19:00:00 10.5 8 Noroeste 9 Noroeste 0 -- -- 77
2019-11-20 18:00:00 11.9 6 Noroeste 10 Sudoeste 0 -- -- 73
2019-11-20 17:00:00 14.3 7 Sur 13 Sur 0 -- -- 68
2019-11-20 16:00:00 14.8 8 Sudeste 17 Este 0 -- -- 66
2019-11-20 15:00:00 15.7 9 Sudeste 22 Sudeste 0 -- -- 59
2019-11-20 14:00:00 15.8 9 Sudeste 17 Sudeste 0 -- -- 60
2019-11-20 13:00:00 15.7 7 Sudeste 17 Este 0 -- -- 60
2019-11-20 12:00:00 14.8 4 Este 10 Este 0 -- -- 60
2019-11-20 11:00:00 13.3 4 Noroeste 15 Noroeste 0 -- -- 62
2019-11-20 10:00:00 11.4 10 Noroeste 21 Noroeste 0 -- -- 65
2019-11-20 09:00:00 9.3 15 Noroeste 23 Noroeste 0 -- -- 69
2019-11-20 08:00:00 9 14 Noroeste 24 Noroeste 0 -- -- 68
2019-11-20 07:00:00 9 17 Noroeste 24 Noroeste 0 -- -- 66
2019-11-20 06:00:00 8.7 17 Noroeste 28 Norte 0 -- -- 66
2019-11-20 05:00:00 7.9 19 Noroeste 27 Norte 0 -- -- 67
2019-11-20 04:00:00 7.9 18 Noroeste 24 Noroeste 0 -- -- 66
2019-11-20 03:00:00 8.2 16 Noroeste 24 Noroeste 0 -- -- 64
2019-11-20 02:00:00 8.1 15 Noroeste 23 Noroeste 0 -- -- 63
2019-11-20 01:00:00 8.2 15 Noroeste 22 Noroeste 0 -- -- 62
2019-11-20 00:00:00 8.4 9 Noroeste 18 Noroeste 0 -- -- 62
2019-11-19 23:00:00 8.7 13 Noroeste 18 Noroeste 0 -- -- 61
2019-11-19 22:00:00 9.3 10 Noroeste 16 Oeste 0 -- -- 60
2019-11-19 21:00:00 10 8 Noroeste 12 Noroeste 0 -- -- 58
2019-11-19 20:00:00 9.4 8 Noroeste 10 Noroeste 0 -- -- 61
2019-11-19 19:00:00 9.4 6 Noroeste 9 Noroeste 0 -- -- 61
2019-11-19 18:00:00 11.6 4 Noroeste 12 Sur 0 -- -- 54
2019-11-19 17:00:00 14.4 8 Sur 20 Sur 0 -- -- 45
2019-11-19 16:00:00 14.9 13 Sur 22 Sur 0 -- -- 45
2019-11-19 15:00:00 15.2 15 Sur 24 Sudeste 0 -- -- 42
2019-11-19 14:00:00 15.7 15 Sur 24 Sudoeste 0 -- -- 39
2019-11-19 13:00:00 15.7 8 Sur 21 Sudeste 0 -- -- 42
2019-11-19 12:00:00 15 7 Sur 16 Sur 0 -- -- 39
2019-11-19 11:00:00 14 6 Sur 12 Sur 0 -- -- 41
2019-11-19 10:00:00 12.3 2 Sudeste 7 Oeste 0 -- -- 44
2019-11-19 09:00:00 8.8 5 Noroeste 13 Noroeste 0 -- -- 54
2019-11-19 08:00:00 6.3 11 Noroeste 14 Noroeste 0 -- -- 59
2019-11-19 07:00:00 6 4 Noroeste 11 Oeste 0 -- -- 60
2019-11-19 06:00:00 5.9 5 Noroeste 13 Noroeste 0 -- -- 61
2019-11-19 05:00:00 5 7 Noroeste 10 Noroeste 0 -- -- 64
2019-11-19 04:00:00 7.2 6 Norte 12 Noroeste 0 -- -- 56
2019-11-19 03:00:00 8.1 4 Noroeste 12 Noroeste 0 -- -- 54
2019-11-19 02:00:00 8.9 5 Noroeste 25 Noroeste 0 -- -- 51
2019-11-19 01:00:00 9.7 12 Noroeste 34 Norte 0 -- -- 49
2019-11-19 00:00:00 10.3 21 Norte 33 Noroeste 0 -- -- 47
2019-11-18 23:00:00 10 12 Noroeste 26 Noroeste 0 -- -- 48
2019-11-18 22:00:00 10.6 15 Noroeste 31 Noroeste 0 -- -- 47
2019-11-18 21:00:00 10.7 15 Noroeste 26 Noroeste 0 -- -- 49
2019-11-18 20:00:00 11.2 13 Norte 30 Norte 0 -- -- 48
2019-11-18 19:00:00 11.4 14 Norte 29 Noroeste 0 -- -- 48
2019-11-18 18:00:00 12.2 17 Norte 28 Noroeste 0 -- -- 47
2019-11-18 17:00:00 13.4 16 Norte 37 Noroeste 0 -- -- 45
2019-11-18 16:00:00 15 21 Norte 40 Noroeste 0 -- -- 41
2019-11-18 15:00:00 15 21 Norte 39 Noroeste 0 -- -- 41
2019-11-18 14:00:00 14.7 23 Norte 42 Norte 0 -- -- 41
2019-11-18 13:00:00 15 23 Norte 46 Noroeste 0 -- -- 40
2019-11-18 12:00:00 14 22 Norte 52 Norte 0.2 -- -- 44
2019-11-18 11:00:00 13.3 26 Norte 44 Norte 0 -- -- 47
2019-11-18 10:00:00 12.8 23 Norte 42 Norte 0 -- -- 52
2019-11-18 09:00:00 10 3 Norte 12 Norte 0 -- -- 71
2019-11-18 08:00:00 9.1 4 Norte 23 Norte 0 -- -- 74
2019-11-18 07:00:00 8.8 9 Norte 18 Norte 0 -- -- 76
2019-11-18 06:00:00 8.2 12 Noroeste 19 Noroeste 0 -- -- 79
2019-11-18 05:00:00 8.9 16 Noroeste 22 Norte 0 -- -- 79
2019-11-18 04:00:00 10.2 16 Norte 24 Norte 0 -- -- 79
2019-11-18 03:00:00 10.6 12 Noroeste 21 Noroeste 0 -- -- 80
2019-11-18 02:00:00 11.1 13 Noroeste 19 Noroeste 0 -- -- 83
2019-11-18 01:00:00 10.9 4 Nordeste 15 Noroeste 0 -- -- 86
2019-11-18 00:00:00 10.8 5 Noroeste 22 Norte 0.4 -- -- 85
2019-11-17 23:00:00 11.9 0 Calma 21 Noroeste 0 -- -- 74
2019-11-17 22:00:00 12.5 11 Noroeste 21 Noroeste 0 -- -- 67
2019-11-17 21:00:00 12.7 12 Noroeste 19 Noroeste 0 -- -- 67
2019-11-17 20:00:00 12.7 13 Noroeste 21 Norte 0 -- -- 67
2019-11-17 19:00:00 13.8 10 Norte 20 Norte 0 -- -- 62
2019-11-17 18:00:00 14.7 10 Norte 23 Norte 0 -- -- 62
2019-11-17 17:00:00 17 3 Noroeste 10 Sur 0 -- -- 47
2019-11-17 16:00:00 18.2 9 Sur 27 Sur 0 -- -- 44
2019-11-17 15:00:00 18.2 12 Sudeste 23 Sudeste 0 -- -- 45
2019-11-17 14:00:00 17.5 13 Sur 25 Sudeste 0 -- -- 36
2019-11-17 13:00:00 17 13 Sur 28 Sur 0 -- -- 36
2019-11-17 12:00:00 14.5 4 Sur 12 Sudeste 0 -- -- 45
2019-11-17 11:00:00 13.6 5 Sudoeste 8 Sudoeste 0 -- -- 41
2019-11-17 10:00:00 12.4 0 Calma 8 Sur 0 -- -- 45
2019-11-17 09:00:00 9.6 2 Oeste 13 Oeste 0 -- -- 50
2019-11-17 08:00:00 8.5 7 Noroeste 15 Noroeste 0 -- -- 50
2019-11-17 07:00:00 7.5 7 Noroeste 14 Noroeste 0 -- -- 52
2019-11-17 06:00:00 8 9 Sudoeste 21 Noroeste 0 -- -- 49
2019-11-17 05:00:00 8.8 12 Noroeste 18 Noroeste 0 -- -- 47
2019-11-17 04:00:00 9.6 12 Noroeste 23 Oeste 0 -- -- 46
2019-11-17 03:00:00 8.9 17 Noroeste 25 Oeste 0 -- -- 50
2019-11-17 02:00:00 9.7 13 Noroeste 23 Noroeste 0 -- -- 47
2019-11-17 01:00:00 10.3 17 Noroeste 23 Oeste 0 -- -- 47
2019-11-17 00:00:00 9.3 6 Noroeste 19 Oeste 0 -- -- 50
2019-11-16 23:00:00 10 13 Oeste 21 Oeste 0 -- -- 50
2019-11-16 22:00:00 9.7 16 Oeste 21 Oeste 0 -- -- 52
2019-11-16 21:00:00 10.1 14 Oeste 20 Noroeste 0 -- -- 52
2019-11-16 20:00:00 9.6 4 Sudoeste 15 Oeste 0 -- -- 61
2019-11-16 19:00:00 10.5 4 Oeste 14 Noroeste 0 -- -- 62
2019-11-16 18:00:00 11.6 8 Oeste 15 Sudoeste 0 -- -- 60
2019-11-16 17:00:00 14 10 Sudoeste 18 Sur 0 -- -- 53
2019-11-16 16:00:00 14.9 13 Sur 20 Sur 0 -- -- 48
2019-11-16 15:00:00 15.9 11 Este 35 Nordeste 0 -- -- 30
2019-11-16 14:00:00 15.8 18 Norte 30 Norte 0 -- -- 31
2019-11-16 13:00:00 15.5 16 Norte 29 Norte 0 -- -- 31
2019-11-16 12:00:00 14.2 18 Norte 33 Nordeste 0 -- -- 38
2019-11-16 11:00:00 12.9 21 Norte 35 Norte 0 -- -- 42
2019-11-16 10:00:00 11.6 8 Norte 23 Norte 0 -- -- 46
2019-11-16 09:00:00 8.4 5 Norte 14 Nordeste 0 -- -- 58
2019-11-16 08:00:00 5.9 3 Norte 9 Norte 0 -- -- 66
2019-11-16 07:00:00 7.4 5 Noroeste 21 Norte 0 -- -- 62
2019-11-16 06:00:00 7.6 10 Norte 19 Norte 0 -- -- 63
2019-11-16 05:00:00 7.7 12 Norte 21 Norte 0 -- -- 63
2019-11-16 04:00:00 8 13 Norte 18 Norte 0 -- -- 61
2019-11-16 03:00:00 6.7 5 Nordeste 14 Noroeste 0 -- -- 65
2019-11-16 02:00:00 8.3 9 Noroeste 13 Noroeste 0 -- -- 60
2019-11-16 01:00:00 8.6 12 Noroeste 18 Norte 0 -- -- 60
2019-11-16 00:00:00 9.9 15 Norte 23 Norte 0 -- -- 54
2019-11-15 23:00:00 9.2 9 Norte 18 Noroeste 0 -- -- 54
2019-11-15 22:00:00 8.8 11 Norte 17 Noroeste 0 -- -- 54
2019-11-15 21:00:00 9.3 12 Noroeste 16 Noroeste 0 -- -- 53
2019-11-15 20:00:00 10.1 9 Norte 16 Norte 0 -- -- 51
2019-11-15 19:00:00 10.5 11 Noroeste 15 Noroeste 0 -- -- 56
2019-11-15 18:00:00 12 6 Noroeste 9 Noroeste 0 -- -- 55
2019-11-15 17:00:00 14 0 Calma 9 Este 0 -- -- 47
2019-11-15 16:00:00 14.5 6 Sur 15 Sur 0 -- -- 44
2019-11-15 15:00:00 14.5 12 Sur 23 Sur 0 -- -- 41
2019-11-15 14:00:00 15 13 Sur 22 Sur 0 -- -- 41
2019-11-15 13:00:00 14.5 11 Sur 24 Sur 0 -- -- 39
2019-11-15 12:00:00 14.7 9 Sudeste 18 Este 0 -- -- 39
2019-11-15 11:00:00 13 8 Norte 21 Oeste 0 -- -- 39
2019-11-15 10:00:00 12.1 3 Sudeste 6 Este 0 -- -- 49
2019-11-15 09:00:00 8.6 3 Noroeste 12 Norte 0 -- -- 59
2019-11-15 08:00:00 7.3 5 Norte 11 Noroeste 0 -- -- 61
2019-11-15 07:00:00 8 0 Calma 10 Sur 0 -- -- 60
2019-11-15 06:00:00 10 5 Noroeste 19 Noroeste 0 -- -- 51
2019-11-15 05:00:00 10.2 12 Noroeste 29 Norte 0 -- -- 52
2019-11-15 04:00:00 10.1 8 Norte 24 Noroeste 0 -- -- 52
2019-11-15 03:00:00 9.5 4 Sur 18 Norte 0 -- -- 60
2019-11-15 02:00:00 9.1 7 Noroeste 10 Noroeste 0 -- -- 61
2019-11-15 01:00:00 8.6 4 Norte 9 Oeste 0 -- -- 62
2019-11-15 00:00:00 10.2 4 Sur 40 Oeste 0 -- -- 57
2019-11-14 23:00:00 11.5 20 Oeste 46 Oeste 0 -- -- 51
2019-11-14 22:00:00 10.8 18 Oeste 28 Noroeste 0 -- -- 47
2019-11-14 21:00:00 10.4 15 Oeste 23 Oeste 0 -- -- 48
2019-11-14 20:00:00 9.5 5 Norte 9 Oeste 0 -- -- 57
2019-11-14 19:00:00 10.2 8 Noroeste 13 Noroeste 0 -- -- 54
2019-11-14 18:00:00 11.3 4 Noroeste 12 Este 0 -- -- 51
2019-11-14 17:00:00 13.9 5 Sur 13 Este 0 -- -- 45
2019-11-14 16:00:00 14.2 7 Nordeste 21 Nordeste 0 -- -- 41
2019-11-14 15:00:00 14.3 9 Este 16 Este 0 -- -- 41
2019-11-14 14:00:00 14 12 Sudoeste 23 Sudoeste 0 -- -- 53
2019-11-14 13:00:00 14.1 10 Oeste 32 Noroeste 0 -- -- 44
2019-11-14 12:00:00 11.9 19 Norte 48 Norte 0 -- -- 52
2019-11-14 11:00:00 11.8 26 Norte 58 Norte 0 -- -- 56
2019-11-14 10:00:00 15.1 8 Sudoeste 15 Sudoeste 0 -- -- 61
2019-11-14 09:00:00 14.5 10 Oeste 16 Sudoeste 0 -- -- 64
2019-11-14 08:00:00 13.4 6 Oeste 9 Sudoeste 0 -- -- 72
2019-11-14 07:00:00 13.2 2 Oeste 14 Oeste 0 -- -- 69
2019-11-14 06:00:00 12.8 10 Oeste 17 Oeste 0 -- -- 68
2019-11-14 05:00:00 12.2 11 Oeste 15 Oeste 0 -- -- 78
2019-11-14 04:00:00 12.3 4 Oeste 10 Noroeste 0 -- -- 84
2019-11-14 03:00:00 13 5 Noroeste 6 Oeste 0 -- -- 85
2019-11-14 02:00:00 14.3 3 Noroeste 12 Sudoeste 0 -- -- 83
2019-11-14 01:00:00 13.5 4 Oeste 11 Noroeste 0 -- -- 83
2019-11-14 00:00:00 11.9 3 Norte 7 Oeste 0 -- -- 72
2019-11-13 23:00:00 12.1 8 Oeste 14 Noroeste 0 -- -- 65
2019-11-13 22:00:00 12 8 Noroeste 12 Norte 0 -- -- 58
2019-11-13 21:00:00 12.8 8 Noroeste 14 Noroeste 0 -- -- 57
2019-11-13 20:00:00 13.1 12 Noroeste 21 Noroeste 0 -- -- 58
2019-11-13 19:00:00 14.9 10 Noroeste 30 Noroeste 0 -- -- 52
2019-11-13 18:00:00 16.2 9 Norte 17 Norte 0 -- -- 48
2019-11-13 17:00:00 17.9 10 Norte 35 Noroeste 0 -- -- 42
2019-11-13 16:00:00 18.2 15 Norte 45 Norte 0 -- -- 43
2019-11-13 15:00:00 18.6 15 Norte 46 Noroeste 0 -- -- 45
2019-11-13 14:00:00 17.1 22 Norte 41 Norte 0 -- -- 52
2019-11-13 13:00:00 15.6 19 Norte 45 Norte 0 -- -- 60
2019-11-13 12:00:00 15.3 16 Norte 36 Norte 0 -- -- 64
2019-11-13 11:00:00 13.5 7 Norte 23 Norte 0 -- -- 81
2019-11-13 10:00:00 11.7 11 Norte 21 Norte 0.2 -- -- 87
2019-11-13 09:00:00 11 12 Noroeste 18 Noroeste 0 -- -- 87
2019-11-13 08:00:00 10.6 4 Noroeste 15 Norte 0.2 -- -- 89
2019-11-13 07:00:00 10.4 9 Noroeste 16 Noroeste 1 -- -- 88
2019-11-13 06:00:00 11 9 Noroeste 15 Noroeste 0.6 -- -- 82
2019-11-13 05:00:00 12 9 Noroeste 15 Noroeste 0.2 -- -- 71
2019-11-13 04:00:00 13.3 3 Noroeste 12 Noroeste 0 -- -- 55
2019-11-13 03:00:00 13.5 4 Este 21 Noroeste 0 -- -- 55
2019-11-13 02:00:00 13.5 9 Noroeste 17 Oeste 0 -- -- 54
2019-11-13 01:00:00 14.3 10 Oeste 18 Noroeste 0 -- -- 48
2019-11-13 00:00:00 14.4 6 Noroeste 13 Noroeste 0 -- -- 45
2019-11-12 23:00:00 14.4 3 Noroeste 18 Oeste 0 -- -- 44
2019-11-12 22:00:00 14.1 10 Noroeste 18 Oeste 0 -- -- 44
2019-11-12 21:00:00 13.9 8 Noroeste 14 Oeste 0 -- -- 44
2019-11-12 20:00:00 15.7 8 Norte 18 Noroeste 0 -- -- 39
2019-11-12 19:00:00 16.2 6 Sur 22 Sudeste 0 -- -- 35
2019-11-12 18:00:00 16.1 8 Norte 17 Nordeste 0 -- -- 40
2019-11-12 17:00:00 17.4 10 Norte 28 Noroeste 0 -- -- 37
2019-11-12 16:00:00 18.4 17 Noroeste 31 Noroeste 0 -- -- 34
2019-11-12 15:00:00 18.8 15 Noroeste 36 Norte 0 -- -- 34
2019-11-12 14:00:00 18.8 17 Noroeste 39 Noroeste 0 -- -- 35
2019-11-12 13:00:00 18.4 22 Norte 45 Noroeste 0 -- -- 35
2019-11-12 12:00:00 17.8 21 Norte 43 Noroeste 0 -- -- 37
2019-11-12 11:00:00 16.8 22 Norte 55 Norte 0 -- -- 41
2019-11-12 10:00:00 15.2 28 Norte 59 Noroeste 0 -- -- 44
2019-11-12 09:00:00 14 27 Norte 71 Noroeste 0 -- -- 47
2019-11-12 08:00:00 12.9 23 Norte 51 Norte 0 -- -- 49
2019-11-12 07:00:00 12.8 25 Norte 52 Norte 0 -- -- 46
2019-11-12 06:00:00 12.9 29 Norte 55 Noroeste 0 -- -- 43
2019-11-12 05:00:00 12.7 26 Norte 62 Norte 0 -- -- 43
2019-11-12 04:00:00 12.8 30 Norte 53 Norte 0 -- -- 44
2019-11-12 03:00:00 13 34 Norte 63 Norte 0 -- -- 44
2019-11-12 02:00:00 13.3 35 Norte 60 Norte 0 -- -- 42
2019-11-12 01:00:00 13.5 29 Norte 59 Norte 0 -- -- 43
2019-11-12 00:00:00 13.5 17 Norte 45 Noroeste 0 -- -- 43
2019-11-11 23:00:00 13.7 13 Noroeste 36 Noroeste 0 -- -- 43
2019-11-11 22:00:00 13.4 5 Este 35 Norte 0 -- -- 46
2019-11-11 21:00:00 14.5 25 Norte 53 Noroeste 0 -- -- 44
2019-11-11 20:00:00 15.1 7 Norte 46 Norte 0 -- -- 45
2019-11-11 19:00:00 16.2 5 Norte 28 Norte 0 -- -- 46
2019-11-11 18:00:00 16.5 5 Norte 22 Norte 0 -- -- 49
2019-11-11 17:00:00 16.6 6 Nordeste 21 Nordeste 0 -- -- 46
2019-11-11 16:00:00 17.2 12 Nordeste 28 Nordeste 0 -- -- 42
2019-11-11 15:00:00 17.7 21 Noroeste 35 Norte 0 -- -- 37
2019-11-11 14:00:00 18.3 20 Norte 37 Noroeste 0 -- -- 35
2019-11-11 13:00:00 18.1 19 Norte 33 Noroeste 0 -- -- 36
2019-11-11 12:00:00 17.7 13 Norte 40 Noroeste 0 -- -- 38
2019-11-11 11:00:00 16.2 14 Noroeste 35 Noroeste 0 -- -- 37
2019-11-11 10:00:00 14.7 12 Noroeste 32 Noroeste 0 -- -- 41
2019-11-11 09:00:00 13.6 17 Noroeste 39 Norte 0 -- -- 42
2019-11-11 08:00:00 13.1 18 Norte 37 Noroeste 0 -- -- 42
2019-11-11 07:00:00 12.2 14 Norte 33 Norte 0 -- -- 44
2019-11-11 06:00:00 11.9 17 Noroeste 34 Noroeste 0 -- -- 45
2019-11-11 05:00:00 11.5 15 Norte 41 Noroeste 0 -- -- 45
2019-11-11 04:00:00 11.4 22 Noroeste 44 Noroeste 0 -- -- 44
2019-11-11 03:00:00 11.5 25 Norte 48 Noroeste 0 -- -- 45
2019-11-11 02:00:00 11.4 24 Norte 52 Noroeste 0 -- -- 44
2019-11-11 01:00:00 11.7 27 Noroeste 50 Norte 0 -- -- 44
2019-11-11 00:00:00 11.7 26 Norte 62 Norte 0 -- -- 44
2019-11-10 23:00:00 12.1 32 Norte 66 Norte 0 -- -- 42
2019-11-10 22:00:00 12.3 26 Norte 48 Norte 0 -- -- 40
2019-11-10 21:00:00 12.8 25 Norte 49 Norte 0 -- -- 40
2019-11-10 20:00:00 12.2 12 Noroeste 42 Noroeste 0 -- -- 45
2019-11-10 19:00:00 13.2 23 Norte 44 Noroeste 0 -- -- 42
2019-11-10 18:00:00 13.9 19 Noroeste 47 Norte 0 -- -- 39
2019-11-10 17:00:00 14.6 19 Norte 54 Norte 0 -- -- 38
2019-11-10 16:00:00 15 17 Norte 42 Noroeste 0 -- -- 38
2019-11-10 15:00:00 15.7 18 Noroeste 48 Noroeste 0 -- -- 37
2019-11-10 14:00:00 16.8 21 Norte 40 Norte 0 -- -- 34
2019-11-10 13:00:00 15.7 9 Norte 35 Norte 0 -- -- 37
2019-11-10 12:00:00 15.6 20 Norte 43 Norte 0 -- -- 37
2019-11-10 11:00:00 14.5 14 Nordeste 39 Norte 0 -- -- 40
2019-11-10 10:00:00 13.5 25 Norte 53 Norte 0 -- -- 41
2019-11-10 09:00:00 12.8 35 Norte 65 Noroeste 0 -- -- 44
2019-11-10 08:00:00 12.1 35 Noroeste 65 Noroeste 0 -- -- 46
2019-11-10 07:00:00 12.2 42 Noroeste 70 Noroeste 0 -- -- 45
2019-11-10 06:00:00 12.2 26 Noroeste 51 Norte 0 -- -- 47
2019-11-10 05:00:00 12.8 27 Noroeste 50 Noroeste 0 -- -- 44
2019-11-10 04:00:00 12.7 29 Noroeste 49 Noroeste 0 -- -- 49
2019-11-10 03:00:00 11.9 9 Nordeste 33 Norte 0 -- -- 52
2019-11-10 02:00:00 12.6 18 Norte 53 Norte 0 -- -- 53
2019-11-10 01:00:00 13.3 4 Oeste 10 Norte 0 -- -- 55
2019-11-10 00:00:00 13.7 8 Noroeste 17 Noroeste 0 -- -- 53
2019-11-09 23:00:00 13.6 10 Noroeste 14 Noroeste 0 -- -- 53
2019-11-09 22:00:00 13.7 6 Noroeste 13 Noroeste 0 -- -- 54
2019-11-09 21:00:00 13.7 10 Noroeste 14 Noroeste 0 -- -- 52
2019-11-09 20:00:00 13.7 10 Noroeste 15 Noroeste 0 -- -- 53
2019-11-09 19:00:00 14.8 7 Noroeste 14 Noroeste 0 -- -- 50
2019-11-09 18:00:00 15.7 4 Noroeste 7 Norte 0 -- -- 48
2019-11-09 17:00:00 17.2 3 Este 8 Norte 0 -- -- 44
2019-11-09 16:00:00 16.3 3 Nordeste 8 Sur 0 -- -- 47
2019-11-09 15:00:00 16.8 5 Sudoeste 10 Sudoeste 0 -- -- 43
2019-11-09 14:00:00 17 5 Sur 20 Noroeste 0 -- -- 42
2019-11-09 13:00:00 16.8 15 Noroeste 32 Noroeste 0 -- -- 40
2019-11-09 12:00:00 17.2 23 Noroeste 66 Norte 0 -- -- 38
2019-11-09 11:00:00 17.1 38 Norte 75 Norte 0 -- -- 38
2019-11-09 10:00:00 15.4 27 Norte 57 Norte 0 -- -- 43
2019-11-09 09:00:00 14.2 32 Norte 60 Noroeste 0 -- -- 43
2019-11-09 08:00:00 13.9 23 Norte 53 Norte 0 -- -- 42
2019-11-09 07:00:00 13.8 26 Norte 52 Norte 0 -- -- 42
2019-11-09 06:00:00 14 18 Norte 41 Norte 0 -- -- 41
2019-11-09 05:00:00 14.2 13 Noroeste 49 Noroeste 0 -- -- 39
2019-11-09 04:00:00 14.2 26 Noroeste 57 Noroeste 0 -- -- 40
2019-11-09 03:00:00 14.5 27 Norte 48 Norte 0 -- -- 39
2019-11-09 02:00:00 15.1 32 Noroeste 60 Noroeste 0 -- -- 38
2019-11-09 01:00:00 14.5 12 Oeste 35 Noroeste 0 -- -- 39
2019-11-09 00:00:00 14.8 12 Oeste 35 Oeste 0 -- -- 39
2019-11-08 23:00:00 13.9 5 Oeste 33 Oeste 0 -- -- 43
2019-11-08 22:00:00 14.3 8 Oeste 39 Oeste 0 -- -- 44
2019-11-08 21:00:00 14.9 15 Oeste 45 Oeste 0 -- -- 42
2019-11-08 20:00:00 15 14 Noroeste 47 Oeste 0 -- -- 41
2019-11-08 19:00:00 14.7 0 Calma 45 Oeste 0 -- -- 39
2019-11-08 18:00:00 15.6 23 Oeste 44 Oeste 0 -- -- 36
2019-11-08 17:00:00 17.5 25 Noroeste 43 Oeste 0 -- -- 30
2019-11-08 16:00:00 18.3 22 Noroeste 43 Noroeste 0 -- -- 27
2019-11-08 15:00:00 18.6 15 Noroeste 39 Noroeste 0 -- -- 28
2019-11-08 14:00:00 18.3 17 Noroeste 41 Oeste 0 -- -- 28
2019-11-08 13:00:00 17.3 15 Norte 34 Oeste 0 -- -- 32
2019-11-08 12:00:00 15.9 10 Oeste 22 Oeste 0 -- -- 36
2019-11-08 11:00:00 14 9 Oeste 21 Oeste 0 -- -- 39
2019-11-08 10:00:00 13 14 Noroeste 24 Oeste 0 -- -- 40
2019-11-08 09:00:00 12.5 7 Oeste 19 Oeste 0 -- -- 41
2019-11-08 08:00:00 9.3 9 Noroeste 22 Oeste 0 -- -- 44
2019-11-08 07:00:00 9 12 Noroeste 19 Noroeste 0 -- -- 45
2019-11-08 06:00:00 9 6 Noroeste 18 Oeste 0 -- -- 47
2019-11-08 05:00:00 10.6 10 Sudoeste 19 Sur 0 -- -- 42
2019-11-08 04:00:00 10.2 7 Noroeste 21 Noroeste 0 -- -- 46
2019-11-08 03:00:00 12.6 14 Norte 25 Norte 0 -- -- 40
2019-11-08 02:00:00 12 9 Norte 15 Norte 0 -- -- 44
2019-11-08 01:00:00 13.6 12 Norte 26 Norte 0 -- -- 38
2019-11-08 00:00:00 12.3 11 Noroeste 23 Noroeste 0 -- -- 42